North Saint Paul, Minnesota
Current Conditions -  °F | °C
As of 7:53 PM on Friday 24 Oct 2014 (Local Time) from KSTP Reporting Station
Haze Haze  
Wind Chill: 56°   Ceiling: Unl
Heat Index: 56°   Visibility: 6mi
Dew Point: 54°   Wind: 6mph
Humidity: 93%   Direction: 130°SE
Pressure: 29.86"   Gusts: NA
Location:  45.0145°N, 93.0259°W
Report Text: KSTP 250053Z 13005KT 6SM BR CLR 13/12 A2986 RMK AO2 SLP112 T01330122
Loading
Personal Weather Stations






























Interactive Weather Map
Tropical Storm Tracking
New forecast layout! Learn more

10-Day Weather Forecast

Advertisements
Track Severe Weather on mobile